Time;durP1;ratioP1;P1;durP2;ratioP2;P2;SDS_P1;SDS_P2;PMS_P1;PMS_P2;Temp;Humidity;BMP_temperature;BMP_pressure;BME280_temperature;BME280_humidity;BME280_pressure;Samples;Min_cycle;Max_cycle;Signal;HPM_P1;HPM_P2
2021/01/27 00:00:31;;;;;;;16.40;8.30;;;;;;;-3.28;80.22;92846.88;5109391;27;20098;-77
2021/01/27 00:02:59;;;;;;;14.93;7.65;;;;;;;-3.29;80.58;92842.69;5094651;27;20023;-77
2021/01/27 00:05:36;;;;;;;18.23;9.00;;;;;;;-3.23;80.61;92839.06;5130888;27;20015;-77
2021/01/27 00:08:02;;;;;;;16.52;8.73;;;;;;;-3.20;79.98;92840.38;5113875;27;20120;-77
2021/01/27 00:10:29;;;;;;;15.85;7.68;;;;;;;-3.26;80.33;92842.19;5094513;28;20011;-77
2021/01/27 00:12:55;;;;;;;20.98;7.85;;;;;;;-3.23;80.72;92848.72;5114438;27;20126;-77
2021/01/27 00:15:25;;;;;;;16.83;7.93;;;;;;;-3.19;80.53;92854.22;5111535;27;20439;-77
2021/01/27 00:17:50;;;;;;;18.23;9.05;;;;;;;-3.18;80.52;92847.94;5113633;27;20036;-78
2021/01/27 00:20:18;;;;;;;18.85;8.52;;;;;;;-3.21;80.25;92851.84;5123772;27;20027;-77
2021/01/27 00:22:44;;;;;;;21.40;8.20;;;;;;;-3.23;80.52;92840.88;5127078;27;20067;-78
2021/01/27 00:25:10;;;;;;;15.98;8.48;;;;;;;-3.28;80.69;92844.25;5098077;27;20398;-77
2021/01/27 00:27:36;;;;;;;18.52;8.40;;;;;;;-3.21;81.10;92859.66;5109771;28;20060;-77
2021/01/27 00:30:05;;;;;;;14.05;7.85;;;;;;;-3.16;80.98;92854.47;5108765;28;20034;-78
2021/01/27 00:32:31;;;;;;;16.58;7.80;;;;;;;-3.09;80.90;92860.25;5094762;28;20108;-78
2021/01/27 00:34:56;;;;;;;13.68;7.40;;;;;;;-3.06;80.16;92851.13;5110254;28;20024;-78
2021/01/27 00:37:22;;;;;;;17.70;7.68;;;;;;;-3.05;79.66;92863.16;5109983;28;20518;-78
2021/01/27 00:39:48;;;;;;;16.38;7.55;;;;;;;-3.05;80.21;92850.13;5109901;28;20024;-78
2021/01/27 00:42:13;;;;;;;17.60;7.75;;;;;;;-3.02;79.89;92850.38;5091456;28;20088;-78
2021/01/27 00:44:39;;;;;;;15.32;7.25;;;;;;;-3.03;79.47;92843.59;5108700;28;20020;-78
2021/01/27 00:47:04;;;;;;;16.70;7.55;;;;;;;-3.05;79.61;92850.88;5102723;28;20080;-78
2021/01/27 00:49:29;;;;;;;17.25;8.23;;;;;;;-3.04;79.63;92851.66;5126147;28;20031;-78
2021/01/27 00:51:55;;;;;;;18.58;8.38;;;;;;;-3.08;79.94;92848.78;5112051;28;20451;-79
2021/01/27 00:54:20;;;;;;;17.63;7.78;;;;;;;-3.11;80.05;92835.47;5108460;28;20024;-79
2021/01/27 00:56:46;;;;;;;17.67;7.68;;;;;;;-3.14;80.42;92841.97;5118491;27;20053;-79
2021/01/27 00:59:11;;;;;;;14.70;7.43;;;;;;;-3.12;79.90;92845.09;5128175;27;20027;-78
2021/01/27 01:01:37;;;;;;;18.63;6.85;;;;;;;-3.13;80.09;92853.19;5133178;27;20110;-79
2021/01/27 01:04:04;;;;;;;17.95;7.90;;;;;;;-3.10;80.40;92850.84;5107634;28;20027;-79
2021/01/27 01:06:30;;;;;;;11.95;6.68;;;;;;;-3.11;80.36;92851.13;5130561;27;20091;-79
2021/01/27 01:08:55;;;;;;;14.07;6.65;;;;;;;-3.16;79.67;92840.66;5107136;27;20031;-79
2021/01/27 01:11:21;;;;;;;16.13;7.32;;;;;;;-3.12;79.97;92844.34;5127425;27;20401;-79
2021/01/27 01:13:46;;;;;;;17.67;8.27;;;;;;;-3.06;79.43;92841.50;5129158;27;20155;-79
2021/01/27 01:16:11;;;;;;;17.65;7.30;;;;;;;-3.03;78.92;92859.25;5112416;28;20019;-79
2021/01/27 01:18:37;;;;;;;19.08;7.28;;;;;;;-3.08;79.64;92859.19;5112426;28;20036;-79
2021/01/27 01:21:03;;;;;;;17.10;6.57;;;;;;;-3.10;79.29;92853.47;5112287;28;20107;-79
2021/01/27 01:23:28;;;;;;;15.38;7.63;;;;;;;-3.03;79.48;92845.44;5103723;28;20016;-79
2021/01/27 01:25:53;;;;;;;13.68;7.50;;;;;;;-3.05;79.20;92842.28;5113414;28;20035;-75
2021/01/27 01:28:19;;;;;;;18.45;8.07;;;;;;;-3.09;79.54;92844.63;5112095;28;20115;-75
2021/01/27 01:30:46;;;;;;;12.23;7.03;;;;;;;-3.04;79.67;92841.25;5112089;28;20019;-75
2021/01/27 01:33:18;;;;;;;15.02;8.05;;;;;;;-3.06;79.96;92833.66;5111005;28;20472;-75
2021/01/27 01:35:43;;;;;;;16.35;7.45;;;;;;;-3.03;80.40;92832.41;5107014;28;20039;-75
2021/01/27 01:38:09;;;;;;;15.13;8.02;;;;;;;-3.03;80.09;92832.41;5101261;28;20411;-75
2021/01/27 01:41:02;;;;;;;12.60;6.93;;;;;;;-3.09;80.17;92813.34;5095311;28;20470;-76
2021/01/27 01:43:33;;;;;;;15.20;8.60;;;;;;;-3.12;80.56;92819.03;5093885;28;20394;-76
2021/01/27 01:46:30;;;;;;;17.43;7.57;;;;;;;-3.10;80.67;92816.97;5102655;28;20097;-76
2021/01/27 01:48:58;;;;;;;14.40;7.22;;;;;;;-3.11;80.50;92809.41;5102077;28;20035;-76
2021/01/27 01:51:31;;;;;;;11.63;5.82;;;;;;;-3.06;80.84;92823.25;5111635;28;20023;-76
2021/01/27 01:54:00;;;;;;;13.50;7.30;;;;;;;-3.04;80.37;92810.72;5108725;28;20028;-76
2021/01/27 01:56:30;;;;;;;15.00;7.25;;;;;;;-3.07;81.09;92806.03;5099802;28;20410;-76
2021/01/27 01:58:58;;;;;;;17.60;8.05;;;;;;;-3.04;80.33;92809.97;5092337;28;20455;-76
2021/01/27 02:01:24;;;;;;;17.33;7.22;;;;;;;-3.02;80.27;92807.88;5090931;28;20024;-76
2021/01/27 02:03:52;;;;;;;15.00;7.20;;;;;;;-2.97;80.53;92815.75;5095774;28;20023;-77
2021/01/27 02:06:18;;;;;;;18.23;7.78;;;;;;;-2.94;80.26;92822.25;5111406;28;20032;-76
2021/01/27 02:08:46;;;;;;;13.25;6.30;;;;;;;-2.94;80.61;92814.44;5115071;27;20065;-76
2021/01/27 02:11:16;;;;;;;13.57;7.32;;;;;;;-2.90;80.21;92813.66;5092110;28;20448;-77
2021/01/27 02:14:04;;;;;;;11.48;6.47;;;;;;;-2.94;79.83;92812.59;5121854;27;20075;-72
2021/01/27 02:16:57;;;;;;;14.25;7.35;;;;;;;-3.01;80.58;92825.09;5097384;27;20039;-80
2021/01/27 02:20:14;;;;;;;22.02;7.82;;;;;;;-3.01;80.49;92819.88;5127621;27;20022;-79
2021/01/27 02:23:18;;;;;;;14.45;7.10;;;;;;;-3.03;81.03;92825.34;5087153;28;20118;-79
2021/01/27 02:25:55;;;;;;;13.38;7.05;;;;;;;-3.08;80.60;92807.06;5108721;27;20446;-79
2021/01/27 02:29:03;;;;;;;14.80;6.85;;;;;;;-3.06;80.84;92810.19;5106262;27;20463;-78
2021/01/27 02:31:37;;;;;;;10.27;5.40;;;;;;;-3.02;80.76;92819.09;5088363;27;20517;-79
2021/01/27 02:34:37;;;;;;;12.35;6.03;;;;;;;-3.02;80.93;92815.69;5118236;27;20033;-78
2021/01/27 02:37:07;;;;;;;14.05;6.75;;;;;;;-3.03;80.77;92822.75;5108348;27;20479;-79
2021/01/27 02:39:42;;;;;;;12.10;6.50;;;;;;;-2.98;80.82;92827.19;5122990;27;20023;-79
2021/01/27 02:42:29;;;;;;;14.25;6.40;;;;;;;-2.94;80.75;92836.06;5123634;27;20080;-79
2021/01/27 02:45:04;;;;;;;13.90;5.78;;;;;;;-2.95;80.88;92841.53;5102315;27;20081;-78
2021/01/27 02:48:04;;;;;;;14.13;7.07;;;;;;;-2.93;80.74;92836.84;5119202;27;20110;-79
2021/01/27 02:51:06;;;;;;;12.55;6.28;;;;;;;-2.95;81.55;92854.56;5094962;28;20063;-79
2021/01/27 02:53:37;;;;;;;13.27;6.82;;;;;;;-2.96;81.10;92845.97;5100177;27;20128;-79
2021/01/27 02:56:20;;;;;;;13.43;6.63;;;;;;;-2.99;81.30;92853.50;5128921;27;20031;-79
2021/01/27 02:59:11;;;;;;;11.75;5.93;;;;;;;-3.02;81.41;92860.03;5099922;27;20129;-79
2021/01/27 03:01:45;;;;;;;9.70;5.32;;;;;;;-2.96;81.52;92853.78;5100426;28;20035;-79
2021/01/27 03:04:22;;;;;;;14.70;6.80;;;;;;;-2.94;80.85;92856.94;5110275;28;20359;-77
2021/01/27 03:06:50;;;;;;;14.23;5.75;;;;;;;-2.93;81.52;92850.69;5093357;28;20407;-77
2021/01/27 03:09:49;;;;;;;16.90;6.68;;;;;;;-2.90;81.02;92857.22;5106213;27;20027;-77
2021/01/27 03:12:14;;;;;;;11.82;5.78;;;;;;;-2.91;81.50;92858.25;5129273;27;20063;-77
2021/01/27 03:14:40;;;;;;;12.25;6.20;;;;;;;-2.87;81.55;92861.91;5096233;27;20426;-77
2021/01/27 03:17:12;;;;;;;12.07;6.25;;;;;;;-2.83;81.21;92860.34;5104829;27;20035;-77
2021/01/27 03:19:45;;;;;;;14.82;7.57;;;;;;;-2.84;81.52;92866.63;5101968;28;20582;-82
2021/01/27 03:22:18;;;;;;;13.52;6.55;;;;;;;-2.83;81.43;92879.41;5092566;28;20043;-75
2021/01/27 03:25:05;;;;;;;11.25;5.78;;;;;;;-2.86;81.48;92868.72;5092674;28;20184;-75
2021/01/27 03:27:36;;;;;;;11.98;6.22;;;;;;;-2.85;81.56;92862.44;5098248;27;20027;-75
2021/01/27 03:30:07;;;;;;;14.00;7.35;;;;;;;-2.88;81.40;92863.75;5131703;27;20035;-75
2021/01/27 03:32:49;;;;;;;14.15;6.72;;;;;;;-2.87;82.03;92880.16;5121799;27;20111;-75
2021/01/27 03:35:17;;;;;;;;;;;;;;;-2.89;81.86;92872.63;5109998;28;20044;-75
2021/01/27 03:37:58;;;;;;;12.40;6.40;;;;;;;-2.91;82.17;92874.69;5116083;27;19918;-75
2021/01/27 03:40:25;;;;;;;16.83;7.28;;;;;;;-2.89;82.45;92882.25;5116235;27;20488;-75
2021/01/27 03:43:01;;;;;;;10.63;5.90;;;;;;;-2.89;82.73;92883.03;5109352;28;20119;-75
2021/01/27 03:45:30;;;;;;;13.77;6.90;;;;;;;-2.88;81.98;92887.22;5110702;28;20059;-75
2021/01/27 03:48:15;;;;;;;12.35;7.15;;;;;;;-2.82;82.02;92894.03;5109202;27;20023;-79
2021/01/27 03:50:42;;;;;;;10.93;6.05;;;;;;;-2.84;81.97;92903.91;5117054;27;20046;-73
2021/01/27 03:53:16;;;;;;;18.58;7.63;;;;;;;-2.89;82.31;92892.66;5100753;28;20045;-73
2021/01/27 03:55:53;;;;;;;13.05;6.90;;;;;;;-2.88;82.31;92896.84;5127196;27;20083;-74
2021/01/27 03:58:32;;;;;;;13.48;7.43;;;;;;;-2.94;82.46;92892.66;5105930;27;20034;-73
2021/01/27 04:01:07;;;;;;;14.38;7.35;;;;;;;-2.86;82.51;92889.56;5120968;27;20085;-73
2021/01/27 04:03:32;;;;;;;15.57;7.72;;;;;;;-2.87;82.38;92895.81;5115329;27;20020;-73
2021/01/27 04:05:58;;;;;;;13.02;7.07;;;;;;;-2.89;82.37;92903.09;5108198;27;20034;-74
2021/01/27 04:08:23;;;;;;;15.80;6.82;;;;;;;-2.90;82.46;92904.94;5112788;27;20028;-77
2021/01/27 04:10:49;;;;;;;14.55;6.70;;;;;;;-2.92;82.32;92901.00;5092192;28;20037;-77
2021/01/27 04:13:15;;;;;;;15.95;7.35;;;;;;;-2.92;82.63;92903.63;5096805;27;20413;-76
2021/01/27 04:15:41;;;;;;;16.55;8.80;;;;;;;-2.94;82.15;92903.88;5096361;28;20020;-73
2021/01/27 04:18:06;;;;;;;15.35;7.80;;;;;;;-3.01;82.53;92892.88;5100692;28;20080;-75
2021/01/27 04:20:32;;;;;;;12.88;7.35;;;;;;;-2.99;82.70;92900.44;5099219;28;20054;-75
2021/01/27 04:22:57;;;;;;;15.73;7.53;;;;;;;-2.98;82.50;92913.22;5116475;27;20414;-75
2021/01/27 04:25:23;;;;;;;13.75;7.20;;;;;;;-3.03;82.63;92916.59;5094918;27;20042;-77
2021/01/27 04:27:49;;;;;;;14.23;8.07;;;;;;;-3.05;82.69;92897.81;5112342;27;20031;-78
2021/01/27 04:30:18;;;;;;;16.02;7.47;;;;;;;-3.10;82.55;92904.81;5103866;28;20026;-77
2021/01/27 04:32:44;;;;;;;18.55;7.80;;;;;;;-3.01;82.42;92900.72;5108273;27;20476;-77
2021/01/27 04:35:10;;;;;;;15.52;7.40;;;;;;;-2.99;82.39;92910.88;5094401;28;20119;-77
2021/01/27 04:37:36;;;;;;;16.67;7.80;;;;;;;-2.98;82.15;92899.41;5102717;28;20534;-77
2021/01/27 04:40:04;;;;;;;14.88;8.25;;;;;;;-3.03;82.20;92903.56;5124782;27;20032;-77
2021/01/27 04:42:30;;;;;;;13.10;6.50;;;;;;;-2.99;82.31;92910.88;5126914;28;20038;-77
2021/01/27 04:44:57;;;;;;;14.73;7.93;;;;;;;-2.98;81.64;92917.66;5109239;28;20032;-77
2021/01/27 04:47:58;;;;;;;14.95;7.85;;;;;;;-2.99;81.73;92910.88;5107764;28;20023;-77
2021/01/27 04:50:42;;;;;;;13.93;7.45;;;;;;;-3.06;81.40;92917.09;5072605;28;20387;-77
2021/01/27 04:53:39;;;;;;;18.73;7.72;;;;;;;-3.13;81.93;92926.19;5109975;28;20027;-77
2021/01/27 04:56:26;;;;;;;17.60;8.48;;;;;;;-3.11;81.41;92918.91;5104449;28;20027;-77
2021/01/27 04:59:02;;;;;;;15.00;7.28;;;;;;;-3.29;81.39;92938.31;5111894;28;20402;-77
2021/01/27 05:01:54;;;;;;;13.98;7.45;;;;;;;-3.32;81.57;92933.59;5130480;27;20030;-77
2021/01/27 05:04:54;;;;;;;17.05;7.53;;;;;;;-3.44;82.03;92924.16;5061843;28;20486;-77
2021/01/27 05:07:27;;;;;;;15.15;7.00;;;;;;;-3.45;81.97;92930.38;5112134;28;20050;-77
2021/01/27 05:09:56;;;;;;;14.38;7.82;;;;;;;-3.48;82.28;92927.47;5112207;28;20012;-77
2021/01/27 05:12:26;;;;;;;16.17;8.20;;;;;;;-3.53;82.44;92938.66;5097641;28;20550;-77
2021/01/27 05:14:52;;;;;;;13.40;7.32;;;;;;;-3.61;82.86;92940.94;5117895;28;20035;-77
2021/01/27 05:17:20;;;;;;;13.95;7.75;;;;;;;-3.67;82.50;92953.91;5109889;28;20028;-77
2021/01/27 05:19:46;;;;;;;13.90;6.85;;;;;;;-3.75;82.32;92937.94;5127018;27;20367;-77
2021/01/27 05:22:13;;;;;;;12.07;6.57;;;;;;;-3.71;82.01;92939.03;5111897;28;20034;-77
2021/01/27 05:24:40;;;;;;;13.00;6.70;;;;;;;-3.71;82.00;92946.84;5095668;28;20364;-77
2021/01/27 05:27:25;;;;;;;13.88;6.97;;;;;;;-3.67;81.70;92953.13;5128078;27;20053;-77
2021/01/27 05:30:01;;;;;;;12.32;6.35;;;;;;;-3.71;81.55;92954.66;5128026;27;20110;-77
2021/01/27 05:32:26;;;;;;;11.55;5.95;;;;;;;-3.71;80.69;92955.41;5106911;28;20504;-77
2021/01/27 05:34:57;;;;;;;13.55;6.15;;;;;;;-3.78;80.78;92962.66;5111590;28;20043;-77
2021/01/27 05:37:28;;;;;;;15.00;7.35;;;;;;;-3.71;80.57;92957.25;5129003;27;20054;-77
2021/01/27 05:40:15;;;;;;;12.32;6.35;;;;;;;-3.73;80.43;92964.53;5119815;28;20039;-77
2021/01/27 05:42:42;;;;;;;11.88;5.97;;;;;;;-3.67;79.89;92963.53;5125264;28;20023;-77
2021/01/27 05:45:30;;;;;;;11.25;6.43;;;;;;;-3.69;79.24;92966.38;5109068;28;20443;-77
2021/01/27 05:48:12;;;;;;;10.85;5.90;;;;;;;-3.71;78.87;92968.44;5112007;27;20031;-77
2021/01/27 05:50:38;;;;;;;;;;;;;;;-3.62;79.10;92971.41;5108362;28;20028;-77
2021/01/27 05:53:24;;;;;;;10.43;4.53;;;;;;;-3.64;78.27;92978.69;5113100;27;20022;-77
2021/01/27 05:56:06;;;;;;;10.57;4.93;;;;;;;-3.65;77.95;92966.69;5094845;28;20372;-77
2021/01/27 05:58:41;;;;;;;14.35;6.82;;;;;;;-3.67;77.57;92969.53;5094844;28;20468;-77
2021/01/27 06:01:20;;;;;;;11.07;5.38;;;;;;;-3.66;77.27;92975.53;5101592;27;20027;-77
2021/01/27 06:04:03;;;;;;;13.48;5.82;;;;;;;-3.60;77.63;92974.56;5128293;27;20015;-77
2021/01/27 06:06:33;;;;;;;14.43;6.60;;;;;;;-3.65;76.80;92990.13;5132228;27;20510;-77
2021/01/27 06:09:01;;;;;;;15.10;5.95;;;;;;;-3.71;76.90;92971.06;5104035;28;20031;-77
2021/01/27 06:11:27;;;;;;;13.18;6.28;;;;;;;-3.69;77.00;92976.00;5123849;27;20087;-77
2021/01/27 06:14:16;;;;;;;11.85;5.85;;;;;;;-3.63;77.03;92969.81;5126317;27;20044;-77
2021/01/27 06:16:49;;;;;;;10.25;5.35;;;;;;;-3.70;76.20;92970.03;5114829;27;20098;-77
2021/01/27 06:19:16;;;;;;;14.80;6.70;;;;;;;-3.72;76.13;92977.31;5094175;28;20088;-77
2021/01/27 06:22:19;;;;;;;15.02;6.40;;;;;;;-3.71;76.61;92970.28;5112652;28;20020;-77
2021/01/27 06:25:46;;;;;;;13.98;6.65;;;;;;;-3.70;75.69;92977.84;5094297;28;20031;-77
2021/01/27 06:28:45;;;;;;;13.60;6.10;;;;;;;-3.78;76.58;92975.69;5001948;28;20066;-77
2021/01/27 06:31:42;;;;;;;15.15;6.20;;;;;;;-3.75;75.98;92977.00;5011710;28;20068;-77
2021/01/27 06:34:43;;;;;;;12.32;5.55;;;;;;;-3.73;75.44;92977.53;5106169;28;20038;-77
2021/01/27 06:37:36;;;;;;;11.50;5.88;;;;;;;-3.68;76.16;92967.19;5102835;28;20136;-77
2021/01/27 06:40:28;;;;;;;12.88;6.40;;;;;;;-3.77;75.50;92964.22;5091890;28;20019;-77
2021/01/27 06:43:20;;;;;;;15.98;6.93;;;;;;;-3.78;76.17;92961.88;5101062;27;20210;-77
2021/01/27 06:46:12;;;;;;;13.73;6.80;;;;;;;-3.73;76.24;92956.72;5108914;27;20481;-77
2021/01/27 06:49:19;;;;;;;12.50;6.25;;;;;;;-3.75;75.67;92966.59;5131550;27;20031;-77
2021/01/27 06:52:09;;;;;;;14.70;7.03;;;;;;;-3.81;75.15;92962.34;5100994;27;20042;-77
2021/01/27 06:55:11;;;;;;;15.07;6.60;;;;;;;-3.78;76.03;92970.47;5132862;27;20494;-77
2021/01/27 06:57:58;;;;;;;12.73;5.78;;;;;;;-3.82;75.93;92972.00;5113750;27;20029;-77
2021/01/27 07:00:32;;;;;;;17.75;5.78;;;;;;;-3.77;75.90;92974.63;5095122;28;20126;-78
2021/01/27 07:03:55;;;;;;;12.52;6.22;;;;;;;-3.75;75.59;92977.78;5108999;27;20030;-77
2021/01/27 07:06:42;;;;;;;14.50;6.93;;;;;;;-3.75;75.28;92971.78;5004728;28;20045;-78
2021/01/27 07:09:16;;;;;;;14.75;7.20;;;;;;;-3.75;75.57;92963.97;5025614;28;20044;-78
2021/01/27 07:11:53;;;;;;;13.57;6.25;;;;;;;-3.76;75.36;93002.25;5081461;27;20043;-77
2021/01/27 07:14:21;;;;;;;14.15;6.53;;;;;;;-3.71;75.55;92981.47;5097576;28;20039;-76
2021/01/27 07:17:08;;;;;;;11.60;5.65;;;;;;;-3.65;74.24;92990.91;5123431;27;20401;-77
2021/01/27 07:20:10;;;;;;;12.00;6.15;;;;;;;-3.65;73.34;92983.09;5111268;27;20058;-78
2021/01/27 07:22:44;;;;;;;;;;;;;;;-3.62;73.65;92989.66;5093675;28;20023;-78
2021/01/27 07:25:25;;;;;;;12.93;6.22;;;;;;;-3.65;73.51;93005.75;5093406;28;19918;-78
2021/01/27 07:28:19;;;;;;;10.80;4.75;;;;;;;-3.64;73.10;93002.91;5093054;28;20023;-78
2021/01/27 07:30:57;;;;;;;12.25;5.40;;;;;;;-3.68;73.86;93006.25;5098095;28;20513;-78
2021/01/27 07:33:33;;;;;;;11.55;5.85;;;;;;;-3.65;73.25;93010.97;5092944;28;20092;-78
2021/01/27 07:36:09;;;;;;;13.43;6.13;;;;;;;-3.72;72.45;93013.75;5107005;27;20109;-78
2021/01/27 07:38:39;;;;;;;10.80;5.07;;;;;;;-3.68;72.94;93001.81;5113102;27;20114;-78
2021/01/27 07:41:14;;;;;;;9.77;5.45;;;;;;;-3.62;72.78;93013.09;5118632;27;20088;-78
2021/01/27 07:43:58;;;;;;;9.68;4.85;;;;;;;-3.58;71.85;93002.94;5111024;28;20055;-78
2021/01/27 07:46:43;;;;;;;12.60;5.38;;;;;;;-3.68;71.76;92994.00;5101129;27;20027;-78
2021/01/27 07:49:12;;;;;;;10.50;5.85;;;;;;;-3.71;72.42;93002.31;5103975;28;20149;-78
2021/01/27 07:52:02;;;;;;;11.00;6.20;;;;;;;-3.66;71.97;93006.78;5102944;27;20055;-78
2021/01/27 07:54:39;;;;;;;13.48;5.63;;;;;;;-3.65;71.05;92993.50;5112851;27;20019;-77
2021/01/27 07:57:34;;;;;;;9.63;5.28;;;;;;;-3.69;71.02;93017.69;5131496;27;20034;-78
2021/01/27 08:00:41;;;;;;;8.02;4.63;;;;;;;-3.63;71.97;92995.88;5105980;27;20030;-77
2021/01/27 08:03:22;;;;;;;14.50;6.03;;;;;;;-3.55;71.58;92990.22;5077151;27;20483;-78
2021/01/27 08:05:49;;;;;;;13.38;5.97;;;;;;;-3.50;70.73;92999.88;5112642;27;20135;-77
2021/01/27 08:08:20;;;;;;;11.63;5.30;;;;;;;-3.38;71.23;93000.50;5131308;27;20034;-77
2021/01/27 08:10:47;;;;;;;13.10;5.40;;;;;;;-3.36;71.71;93010.69;5113785;27;20020;-77
2021/01/27 08:13:38;;;;;;;12.43;5.45;;;;;;;-3.26;70.91;92993.34;5124753;27;20459;-77
2021/01/27 08:16:15;;;;;;;11.15;5.00;;;;;;;-3.18;69.60;93012.16;5113803;27;20032;-77
2021/01/27 08:19:12;;;;;;;10.15;4.38;;;;;;;-3.19;68.97;93008.00;5110324;28;20046;-77
2021/01/27 08:21:55;;;;;;;8.40;4.22;;;;;;;-3.21;69.23;93008.22;5092381;28;20024;-77
2021/01/27 08:24:36;;;;;;;15.68;5.85;;;;;;;-3.18;69.81;93001.72;5091958;28;20027;-77
2021/01/27 08:27:11;;;;;;;10.80;5.05;;;;;;;-3.13;70.72;92997.34;5094540;28;20031;-77
2021/01/27 08:30:02;;;;;;;11.38;5.63;;;;;;;-3.14;70.27;92998.38;5119047;27;20028;-77
2021/01/27 08:32:37;;;;;;;10.50;5.00;;;;;;;-3.06;68.70;93000.50;5082000;28;20031;-77
2021/01/27 08:35:05;;;;;;;10.50;5.70;;;;;;;-3.06;69.32;93005.72;5130411;27;20040;-77
2021/01/27 08:37:41;;;;;;;8.18;4.40;;;;;;;-3.02;68.98;93009.41;5117193;27;20031;-77
2021/01/27 08:40:28;;;;;;;12.40;5.90;;;;;;;-2.99;69.57;92999.50;5129311;27;20023;-77
2021/01/27 08:42:56;;;;;;;15.70;5.32;;;;;;;-3.00;68.14;92998.72;5112539;27;20084;-77
2021/01/27 08:45:28;;;;;;;10.30;4.57;;;;;;;-3.03;67.92;93000.03;5129270;27;20411;-77
2021/01/27 08:48:00;;;;;;;9.23;4.30;;;;;;;-2.89;68.61;92983.94;5115341;28;20035;-77
2021/01/27 08:50:34;;;;;;;9.90;4.50;;;;;;;-2.88;67.06;92985.53;5120139;27;20468;-77
2021/01/27 08:53:10;;;;;;;10.05;4.50;;;;;;;-2.92;67.13;92995.66;5110190;28;20475;-77
2021/01/27 08:55:43;;;;;;;13.40;6.15;;;;;;;-2.85;68.51;92988.41;5130730;27;20079;-77
2021/01/27 08:58:29;;;;;;;9.32;4.07;;;;;;;-2.79;68.80;92988.44;5127742;27;20032;-77
2021/01/27 09:01:10;;;;;;;7.95;4.20;;;;;;;-2.75;67.90;93016.38;5106536;28;20570;-77
2021/01/27 09:03:42;;;;;;;7.80;4.63;;;;;;;-2.81;67.60;93001.72;5129042;27;20019;-77
2021/01/27 09:06:29;;;;;;;9.45;4.93;;;;;;;-2.77;68.18;93002.78;5111936;28;20043;-76
2021/01/27 09:09:07;;;;;;;11.73;4.57;;;;;;;-2.78;67.69;93005.69;5097661;28;20507;-76
2021/01/27 09:11:33;;;;;;;10.13;4.93;;;;;;;-2.75;68.62;93011.16;5120901;27;20470;-77
2021/01/27 09:14:04;;;;;;;9.63;4.07;;;;;;;-2.77;67.05;93018.44;5111862;28;20043;-77
2021/01/27 09:16:30;;;;;;;10.65;4.85;;;;;;;-2.74;68.83;93006.75;5101742;28;20019;-77
2021/01/27 09:19:08;;;;;;;9.98;4.80;;;;;;;-2.72;69.46;93015.88;5091443;28;20172;-77
2021/01/27 09:21:34;;;;;;;11.43;5.18;;;;;;;-2.70;69.06;93024.25;5105264;28;20495;-77
2021/01/27 09:24:23;;;;;;;7.55;3.92;;;;;;;-2.77;68.02;93034.09;5111268;27;20050;-77
2021/01/27 09:26:51;;;;;;;7.72;4.22;;;;;;;-2.85;68.41;93018.91;5113285;27;20088;-77
2021/01/27 09:29:30;;;;;;;10.05;4.82;;;;;;;-2.88;68.22;93040.28;5113210;27;20484;-77
2021/01/27 09:31:57;;;;;;;11.68;5.35;;;;;;;-2.86;69.95;93038.22;5113863;28;20513;-77
2021/01/27 09:34:27;;;;;;;9.68;4.40;;;;;;;-2.89;68.79;93038.69;5096412;27;20472;-77
2021/01/27 09:37:04;;;;;;;9.48;5.05;;;;;;;-2.86;68.29;93035.59;5115661;27;20454;-77
2021/01/27 09:39:36;;;;;;;9.32;5.40;;;;;;;-2.90;69.81;93044.97;5133743;27;20038;-77
2021/01/27 09:42:30;;;;;;;8.10;4.10;;;;;;;-2.87;69.58;93060.91;5100777;28;20406;-77
2021/01/27 09:45:04;;;;;;;8.15;4.10;;;;;;;-2.88;68.73;93058.53;5094500;28;20410;-77
2021/01/27 09:47:32;;;;;;;10.05;5.13;;;;;;;-2.91;70.05;93049.41;5106137;27;20027;-77
2021/01/27 09:50:00;;;;;;;10.88;5.20;;;;;;;-2.87;70.56;93060.09;5101010;28;20036;-77
2021/01/27 09:52:27;;;;;;;9.50;5.18;;;;;;;-2.81;69.60;93048.66;5094849;28;20179;-77
2021/01/27 09:54:59;;;;;;;8.10;4.10;;;;;;;-2.82;69.56;93060.16;5096687;28;20024;-77
2021/01/27 09:57:25;;;;;;;;;;;;;;;-2.81;70.38;93061.72;5113999;27;20020;-77
2021/01/27 10:00:28;;;;;;;9.77;5.10;;;;;;;-2.89;70.88;93057.75;5115712;27;19960;-77
2021/01/27 10:02:54;;;;;;;11.70;4.90;;;;;;;-2.88;70.79;93053.31;5094656;27;20031;-77
2021/01/27 10:05:46;;;;;;;9.52;4.90;;;;;;;-2.75;69.65;93060.72;5115398;27;20397;-77
2021/01/27 10:08:26;;;;;;;10.98;6.30;;;;;;;-2.82;71.89;93047.88;5106255;28;20039;-77
2021/01/27 10:11:10;;;;;;;12.40;4.97;;;;;;;-2.75;71.29;93047.66;5113105;28;20098;-77
2021/01/27 10:13:38;;;;;;;12.05;6.05;;;;;;;-2.75;70.69;93041.69;5129668;27;20050;-77
2021/01/27 10:16:08;;;;;;;11.07;5.35;;;;;;;-2.74;70.83;93044.03;5099977;28;20042;-77
2021/01/27 10:18:37;;;;;;;12.25;5.65;;;;;;;-2.70;71.00;93039.13;5094558;28;20031;-77
2021/01/27 10:21:09;;;;;;;9.77;5.10;;;;;;;-2.75;70.34;93042.44;5094473;28;20023;-77
2021/01/27 10:23:44;;;;;;;9.43;5.22;;;;;;;-2.70;70.90;93039.13;5094366;28;20019;-77
2021/01/27 10:26:34;;;;;;;12.95;7.82;;;;;;;-2.70;71.92;93047.72;5103048;27;20019;-77
2021/01/27 10:29:15;;;;;;;9.15;5.18;;;;;;;-2.67;70.85;93033.38;5114541;27;20015;-77
2021/01/27 10:31:41;;;;;;;10.35;5.07;;;;;;;-2.67;70.78;93038.59;5131798;27;20446;-77
2021/01/27 10:34:07;;;;;;;10.88;5.70;;;;;;;-2.68;71.33;93034.44;5132785;27;20038;-77
2021/01/27 10:36:38;;;;;;;13.15;6.90;;;;;;;-2.59;70.36;93032.13;5097932;28;20467;-77
2021/01/27 10:39:10;;;;;;;13.27;6.53;;;;;;;-2.56;70.49;93026.44;5123681;27;20503;-77
2021/01/27 10:41:35;;;;;;;14.05;7.03;;;;;;;-2.45;70.02;93031.44;5107299;28;20027;-78
2021/01/27 10:44:29;;;;;;;12.48;6.03;;;;;;;-2.34;69.05;93029.69;5092984;28;20015;-78
2021/01/27 10:46:57;;;;;;;10.27;5.75;;;;;;;-2.27;70.14;93030.22;5106407;27;20117;-77
2021/01/27 10:49:24;;;;;;;9.50;5.28;;;;;;;-2.23;69.79;93030.50;5124470;27;20246;-77
2021/01/27 10:51:49;;;;;;;13.88;6.32;;;;;;;-2.17;70.00;93031.31;5114153;27;20180;-78
2021/01/27 10:54:20;;;;;;;13.32;6.60;;;;;;;-2.08;69.50;93033.19;5114415;27;20117;-78
2021/01/27 10:56:51;;;;;;;10.00;4.78;;;;;;;-2.11;68.33;93040.75;5111848;27;20034;-77
2021/01/27 10:59:17;;;;;;;12.52;6.13;;;;;;;-2.14;68.74;93041.25;5117250;27;20030;-78
2021/01/27 11:01:42;;;;;;;10.68;6.10;;;;;;;-2.07;68.79;93042.59;5095578;28;20031;-78
2021/01/27 11:04:07;;;;;;;12.10;5.95;;;;;;;-2.18;68.07;93045.41;5111935;28;20157;-78
2021/01/27 11:06:33;;;;;;;9.63;5.20;;;;;;;-2.13;67.66;93048.06;5110626;28;20123;-78
2021/01/27 11:08:58;;;;;;;11.50;5.45;;;;;;;-2.13;68.70;93069.72;5103586;27;20019;-78
2021/01/27 11:11:24;;;;;;;16.40;5.93;;;;;;;-2.22;67.83;93040.72;5131975;27;20027;-78
2021/01/27 11:13:49;;;;;;;8.70;4.70;;;;;;;-2.31;68.03;93038.81;5130358;27;20051;-78
2021/01/27 11:16:16;;;;;;;15.65;5.72;;;;;;;-2.26;69.67;93044.88;5130902;27;20114;-78
2021/01/27 11:18:41;;;;;;;7.90;4.70;;;;;;;-2.27;67.90;93038.06;5113888;27;20029;-78
2021/01/27 11:21:07;;;;;;;12.18;5.57;;;;;;;-2.37;68.16;93037.22;5112476;27;20486;-78
2021/01/27 11:23:33;;;;;;;10.15;5.25;;;;;;;-2.39;69.32;93050.53;5095083;28;20022;-78
2021/01/27 11:25:58;;;;;;;13.07;6.40;;;;;;;-2.46;68.98;93040.31;5110812;27;20486;-76
2021/01/27 11:28:27;;;;;;;9.63;5.47;;;;;;;-2.50;69.42;93043.69;5132283;27;20031;-77
2021/01/27 11:30:53;;;;;;;12.95;6.57;;;;;;;-2.46;69.48;93023.88;5130515;27;20111;-77
2021/01/27 11:33:19;;;;;;;17.30;6.95;;;;;;;-2.38;69.29;93031.22;5111457;28;20477;-77
2021/01/27 11:35:45;;;;;;;12.45;5.95;;;;;;;-2.28;69.51;93031.28;5108749;27;20110;-77
2021/01/27 11:38:11;;;;;;;13.82;6.57;;;;;;;-2.27;69.95;93019.00;5131741;27;20098;-78
2021/01/27 11:40:36;;;;;;;11.60;6.68;;;;;;;-2.22;69.37;93026.84;5107389;28;20034;-77
2021/01/27 11:43:02;;;;;;;13.27;6.90;;;;;;;-2.10;68.18;93031.88;5092400;28;20027;-78
2021/01/27 11:45:28;;;;;;;14.32;7.50;;;;;;;-2.07;69.28;93026.16;5097535;27;20027;-78
2021/01/27 11:47:54;;;;;;;9.05;5.35;;;;;;;-2.24;68.25;93047.19;5105550;28;20027;-78
2021/01/27 11:50:22;;;;;;;11.98;5.93;;;;;;;-2.19;68.95;93025.56;5092618;28;20107;-78
2021/01/27 11:52:49;;;;;;;11.25;6.07;;;;;;;-2.19;69.35;93033.41;5127794;27;20027;-78
2021/01/27 11:55:15;;;;;;;10.20;5.97;;;;;;;-2.09;69.73;93009.94;5102874;27;20050;-78
2021/01/27 11:57:41;;;;;;;8.55;5.43;;;;;;;-2.02;69.38;93021.72;5113157;27;20030;-79
2021/01/27 12:00:08;;;;;;;10.48;5.57;;;;;;;-1.98;68.89;93029.81;5087522;27;20039;-79
2021/01/27 12:02:33;;;;;;;11.90;6.50;;;;;;;-2.20;68.52;93018.78;5115986;27;20585;-76